Time;durP1;ratioP1;P1;durP2;ratioP2;P2;SDS_P1;SDS_P2;PMS_P1;PMS_P2;Temp;Humidity;BMP_temperature;BMP_pressure;BME280_temperature;BME280_humidity;BME280_pressure;Samples;Min_cycle;Max_cycle;Signal;HPM_P1;HPM_P2
2021/03/25 00:00:33;;;;;;;11.08;6.15;;;;;;;-1.69;59.82;99753.84;1673983;86;21190;-70
2021/03/25 00:03:01;;;;;;;15.03;7.17;;;;;;;-1.71;60.15;99744.39;1666774;86;21611;-70
2021/03/25 00:05:32;;;;;;;14.45;6.92;;;;;;;-1.76;60.39;99744.95;1665788;83;21299;-70
2021/03/25 00:08:01;;;;;;;15.68;7.80;;;;;;;-1.77;61.16;99740.63;1717206;83;21218;-70
2021/03/25 00:10:34;;;;;;;16.67;6.85;;;;;;;-1.81;61.66;99734.55;1717171;83;21181;-70
2021/03/25 00:13:03;;;;;;;14.33;7.22;;;;;;;-1.85;61.97;99737.28;1717284;83;21670;-70
2021/03/25 00:15:32;;;;;;;14.58;6.72;;;;;;;-2.03;62.43;99708.39;1714128;83;21704;-70
2021/03/25 00:18:00;;;;;;;14.47;7.12;;;;;;;-1.92;62.54;99731.89;1717338;83;21612;-70
2021/03/25 00:20:30;;;;;;;15.60;7.65;;;;;;;-1.96;62.45;99723.95;1716797;83;21177;-70
2021/03/25 00:22:58;;;;;;;14.03;7.42;;;;;;;-1.97;62.15;99728.96;1717206;83;21165;-70
2021/03/25 00:25:29;;;;;;;15.30;7.83;;;;;;;-1.95;61.68;99730.95;1691584;83;21167;-70
2021/03/25 00:27:57;;;;;;;15.72;7.03;;;;;;;-1.92;61.53;99725.22;1673877;86;21228;-70
2021/03/25 00:30:29;;;;;;;14.43;7.17;;;;;;;-1.89;61.33;99726.17;1649213;86;21213;-70
2021/03/25 00:33:00;;;;;;;15.30;6.78;;;;;;;-1.87;61.16;99725.95;1673725;85;21345;-70
2021/03/25 00:35:29;;;;;;;13.93;7.05;;;;;;;-1.86;61.20;99723.62;1669606;84;21193;-70
2021/03/25 00:37:57;;;;;;;13.32;6.50;;;;;;;-1.83;61.29;99730.73;1676392;84;21794;-70
2021/03/25 00:40:27;;;;;;;11.40;5.72;;;;;;;-1.84;61.35;99727.73;1664427;86;21642;-70
2021/03/25 00:42:54;;;;;;;14.90;7.30;;;;;;;-1.82;61.05;99724.89;1673766;85;21626;-70
2021/03/25 00:45:33;;;;;;;11.48;6.10;;;;;;;-2.02;61.08;99700.18;1706211;84;21177;-70
2021/03/25 00:48:01;;;;;;;12.20;6.22;;;;;;;-1.84;60.86;99731.73;1706927;84;21181;-71
2021/03/25 00:50:36;;;;;;;11.83;5.65;;;;;;;-1.86;60.92;99724.95;1709572;84;21215;-71
2021/03/25 00:53:04;;;;;;;13.72;6.75;;;;;;;-1.87;61.11;99734.80;1709742;84;21597;-69
2021/03/25 00:55:32;;;;;;;10.98;5.70;;;;;;;-1.86;60.99;99735.63;1706514;84;21640;-69
2021/03/25 00:58:00;;;;;;;10.32;5.60;;;;;;;-1.88;61.09;99733.17;1684675;84;21223;-70
2021/03/25 01:00:35;;;;;;;12.35;5.62;;;;;;;-1.86;61.27;99729.78;1676187;85;21623;-70
2021/03/25 01:03:03;;;;;;;12.53;5.87;;;;;;;-1.87;61.14;99733.97;1679764;84;21134;-70
2021/03/25 01:05:32;;;;;;;10.65;5.65;;;;;;;-1.86;60.79;99731.12;1709767;84;21135;-70
2021/03/25 01:08:00;;;;;;;10.35;5.08;;;;;;;-1.88;60.91;99726.50;1683587;84;21736;-70
2021/03/25 01:10:37;;;;;;;9.68;5.10;;;;;;;-1.85;60.79;99727.44;1709335;84;21134;-70
2021/03/25 01:13:13;;;;;;;11.85;5.33;;;;;;;-1.86;60.83;99724.45;1706593;84;21658;-70
2021/03/25 01:15:43;;;;;;;11.15;5.72;;;;;;;-1.82;60.62;99724.89;1709211;84;22025;-70
2021/03/25 01:18:11;;;;;;;11.80;5.67;;;;;;;-1.89;60.55;99723.50;1681061;85;21214;-70
2021/03/25 01:20:41;;;;;;;14.68;5.75;;;;;;;-1.88;60.64;99731.83;1681242;85;21209;-70
2021/03/25 01:23:09;;;;;;;10.25;5.70;;;;;;;-1.86;60.64;99727.62;1708409;83;21617;-70
2021/03/25 01:25:38;;;;;;;9.30;4.95;;;;;;;-1.87;60.83;99722.78;1717414;83;21666;-71
2021/03/25 01:28:07;;;;;;;10.15;5.03;;;;;;;-1.84;60.86;99729.06;1717315;83;21616;-70
2021/03/25 01:30:35;;;;;;;9.88;4.55;;;;;;;-1.81;60.79;99727.88;1689139;83;21173;-70
2021/03/25 01:33:06;;;;;;;11.08;5.10;;;;;;;-1.83;60.79;99733.90;1714265;83;21197;-70
2021/03/25 01:35:37;;;;;;;9.33;4.80;;;;;;;-1.83;60.85;99733.39;1716869;83;21157;-71
2021/03/25 01:38:07;;;;;;;11.00;5.47;;;;;;;-1.86;60.95;99731.12;1717402;83;21592;-71
2021/03/25 01:40:44;;;;;;;11.12;5.50;;;;;;;-1.82;61.01;99726.22;1716909;83;21189;-70
2021/03/25 01:43:32;;;;;;;9.28;4.55;;;;;;;-1.82;61.12;99728.89;1715067;83;21143;-71
2021/03/25 01:46:11;;;;;;;8.63;4.30;;;;;;;-1.83;60.68;99721.89;1709619;84;21634;-69
2021/03/25 01:48:40;;;;;;;8.65;5.08;;;;;;;-1.82;60.81;99724.89;1706468;84;21154;-69
2021/03/25 01:51:47;;;;;;;9.20;4.22;;;;;;;-1.85;60.59;99719.94;1706734;84;21279;-70
2021/03/25 01:54:46;;;;;;;10.85;5.28;;;;;;;-1.86;60.71;99716.44;1666395;86;21227;-70
2021/03/25 01:57:39;;;;;;;10.38;4.85;;;;;;;-1.86;60.80;99724.45;1674145;84;21636;-72
2021/03/25 02:00:31;;;;;;;9.28;4.33;;;;;;;-1.90;60.71;99714.34;1709428;84;21186;-71
2021/03/25 02:03:36;;;;;;;11.38;4.70;;;;;;;-1.91;60.91;99724.72;1689308;84;21782;-71
2021/03/25 02:06:43;;;;;;;9.30;4.60;;;;;;;-1.96;61.11;99721.78;1698829;84;21680;-69
2021/03/25 02:09:35;;;;;;;9.60;4.58;;;;;;;-2.01;61.36;99721.02;1706175;83;21625;-70
2021/03/25 02:12:31;;;;;;;7.78;4.15;;;;;;;-2.02;61.18;99727.39;1673740;84;21160;-70
2021/03/25 02:15:11;;;;;;;9.55;4.20;;;;;;;-2.09;61.36;99715.30;1666301;86;21187;-70
2021/03/25 02:18:03;;;;;;;9.58;4.62;;;;;;;-2.13;61.55;99718.56;1696446;84;21134;-70
2021/03/25 02:20:53;;;;;;;9.78;4.33;;;;;;;-2.19;61.70;99717.97;1706446;84;21193;-70
2021/03/25 02:23:35;;;;;;;7.37;4.28;;;;;;;-2.21;62.07;99712.02;1709223;83;21201;-70
2021/03/25 02:26:43;;;;;;;7.95;4.33;;;;;;;-2.26;62.46;99711.74;1709453;84;21521;-69
2021/03/25 02:29:26;;;;;;;9.00;5.20;;;;;;;-2.33;62.40;99702.85;1709418;83;21182;-70
2021/03/25 02:31:58;;;;;;;8.23;4.35;;;;;;;-2.40;62.46;99711.29;1709384;84;21189;-70
2021/03/25 02:34:30;;;;;;;11.38;4.92;;;;;;;-2.44;62.46;99706.84;1674814;84;21195;-70
2021/03/25 02:37:06;;;;;;;9.50;4.90;;;;;;;-2.44;62.58;99716.17;1666408;86;21175;-69
2021/03/25 02:43:01;;;;;;;9.10;4.25;;;;;;;-2.46;62.83;99708.88;1818696;79;22664;-67
2021/03/25 02:45:33;;;;;;;11.08;4.90;;;;;;;-2.52;62.91;99717.14;1774741;80;21122;-67
2021/03/25 02:48:06;;;;;;;9.93;5.00;;;;;;;-2.54;62.81;99712.48;1747721;81;21602;-67
2021/03/25 02:50:49;;;;;;;8.65;4.70;;;;;;;-2.54;62.86;99712.48;1756661;81;21153;-67
2021/03/25 02:53:34;;;;;;;8.53;4.20;;;;;;;-2.55;62.81;99717.49;1764107;81;21160;-67
2021/03/25 02:56:10;;;;;;;8.90;4.67;;;;;;;-2.56;62.59;99709.70;1762275;81;21172;-66
2021/03/25 02:58:38;;;;;;;8.23;4.40;;;;;;;-2.58;62.55;99720.53;1750848;81;21177;-66
2021/03/25 03:01:14;;;;;;;8.80;4.37;;;;;;;-2.62;62.33;99720.59;1762253;81;21202;-67
2021/03/25 03:03:50;;;;;;;10.00;4.70;;;;;;;-2.58;62.47;99721.88;1762392;81;21161;-66
2021/03/25 03:06:29;;;;;;;10.82;3.83;;;;;;;-2.51;62.28;99708.61;1758456;81;21495;-67
2021/03/25 03:08:58;;;;;;;8.95;4.35;;;;;;;-2.54;62.40;99719.16;1764481;81;21133;-67
2021/03/25 03:11:32;;;;;;;8.63;4.15;;;;;;;-2.53;62.34;99714.65;1764998;81;21118;-67
2021/03/25 03:14:16;;;;;;;9.25;4.70;;;;;;;-2.55;62.50;99721.48;1762309;81;21144;-67
2021/03/25 03:16:50;;;;;;;8.70;4.55;;;;;;;-2.58;62.37;99717.88;1762183;81;21353;-68
2021/03/25 03:19:34;;;;;;;10.20;4.92;;;;;;;-2.58;62.44;99713.88;1762457;81;21145;-68
2021/03/25 03:22:06;;;;;;;7.37;4.20;;;;;;;-2.58;62.35;99724.53;1762046;81;21593;-67
2021/03/25 03:24:49;;;;;;;8.45;4.53;;;;;;;-2.51;62.46;99719.27;1771089;79;22879;-67
2021/03/25 03:27:34;;;;;;;8.75;4.28;;;;;;;-2.53;62.14;99723.98;1717652;83;21212;-67
2021/03/25 03:30:07;;;;;;;7.83;3.47;;;;;;;-2.53;62.13;99719.48;1722817;83;21307;-67
2021/03/25 03:32:48;;;;;;;8.23;4.00;;;;;;;-2.56;62.05;99719.86;1721958;83;21580;-67
2021/03/25 03:35:37;;;;;;;8.23;4.08;;;;;;;-2.56;61.85;99725.19;1722965;83;21664;-67
2021/03/25 03:38:10;;;;;;;8.78;3.62;;;;;;;-2.53;61.71;99729.31;1722648;83;21266;-67
2021/03/25 03:40:42;;;;;;;9.08;4.22;;;;;;;-2.54;61.56;99725.81;1695805;83;21202;-67
2021/03/25 03:43:13;;;;;;;7.65;4.00;;;;;;;-2.54;61.50;99727.66;1720389;83;21193;-67
2021/03/25 03:45:51;;;;;;;8.55;3.92;;;;;;;-2.56;61.69;99719.86;1705629;83;21169;-67
2021/03/25 03:48:41;;;;;;;7.12;3.72;;;;;;;-2.56;61.82;99721.70;1692460;85;21197;-67
2021/03/25 03:51:31;;;;;;;9.33;3.60;;;;;;;-2.56;61.71;99715.03;1706419;83;21626;-67
2021/03/25 03:54:01;;;;;;;8.63;4.00;;;;;;;-2.62;61.88;99720.59;1722664;83;21209;-67
2021/03/25 03:57:04;;;;;;;8.90;4.03;;;;;;;-2.65;61.92;99720.14;1722551;83;21176;-67
2021/03/25 03:59:45;;;;;;;8.83;3.72;;;;;;;-2.67;62.14;99719.52;1722594;83;21141;-67
2021/03/25 04:05:23;;;;;;;8.63;4.12;;;;;;;-2.77;62.39;99704.33;1823006;77;22885;-67
2021/03/25 04:08:28;;;;;;;8.90;4.15;;;;;;;-2.69;62.03;99719.69;1818087;79;22489;-67
2021/03/25 04:11:25;;;;;;;7.83;4.17;;;;;;;-2.72;61.96;99724.56;1751439;81;21197;-67
2021/03/25 04:14:06;;;;;;;11.97;4.30;;;;;;;-2.74;62.12;99722.11;1759637;81;21620;-67
2021/03/25 04:16:36;;;;;;;7.40;3.70;;;;;;;-2.73;62.39;99726.40;1758593;81;21178;-66
2021/03/25 04:19:13;;;;;;;7.17;4.22;;;;;;;-2.73;62.27;99724.27;1767848;80;21154;-67
2021/03/25 04:21:57;;;;;;;9.98;4.62;;;;;;;-2.67;62.46;99721.67;1818629;79;22553;-67
2021/03/25 04:24:27;;;;;;;10.53;3.85;;;;;;;-2.65;62.08;99719.64;1790469;80;21165;-67
2021/03/25 04:27:10;;;;;;;6.97;4.30;;;;;;;-2.64;60.99;99723.12;1724071;83;21181;-67
2021/03/25 04:29:59;;;;;;;9.65;4.50;;;;;;;-2.55;61.09;99730.81;1718496;83;21169;-67
2021/03/25 04:32:28;;;;;;;10.30;4.90;;;;;;;-2.50;60.95;99728.93;1717955;82;21110;-67
2021/03/25 04:34:56;;;;;;;8.98;4.42;;;;;;;-2.37;60.81;99734.40;1691849;84;21328;-68
2021/03/25 04:37:24;;;;;;;6.75;3.75;;;;;;;-2.33;60.87;99738.34;1696077;84;21181;-68
2021/03/25 04:39:52;;;;;;;8.68;4.47;;;;;;;-2.26;60.77;99729.91;1667736;84;21218;-67
2021/03/25 04:42:22;;;;;;;10.48;4.50;;;;;;;-2.34;60.06;99704.72;1695492;83;21327;-68
2021/03/25 04:45:31;;;;;;;8.45;4.17;;;;;;;-2.10;59.87;99732.34;1698527;84;21597;-68
2021/03/25 04:48:01;;;;;;;;;;;;;;;-2.04;59.63;99730.23;1709723;84;21200;-66
2021/03/25 04:50:37;;;;;;;9.80;4.45;;;;;;;-1.95;59.46;99734.12;1725896;83;20462;-66
2021/03/25 04:53:09;;;;;;;8.93;4.65;;;;;;;-1.91;59.28;99737.52;1694344;84;21806;-66
2021/03/25 04:55:39;;;;;;;9.18;4.12;;;;;;;-1.84;58.80;99738.41;1694661;84;21356;-67
2021/03/25 04:58:08;;;;;;;9.50;4.87;;;;;;;-1.74;58.59;99736.27;1699426;84;21194;-67
2021/03/25 05:00:41;;;;;;;10.85;5.20;;;;;;;-1.68;58.36;99738.66;1678068;84;21184;-67
2021/03/25 05:03:18;;;;;;;7.37;4.03;;;;;;;-1.61;57.47;99732.36;1698439;84;21320;-67
2021/03/25 05:05:46;;;;;;;8.65;5.03;;;;;;;-1.49;57.63;99738.50;1678089;84;21172;-68
2021/03/25 05:08:21;;;;;;;9.03;4.37;;;;;;;-1.38;56.97;99741.98;1700138;83;21592;-68
2021/03/25 05:11:05;;;;;;;8.15;4.50;;;;;;;-1.33;56.92;99740.87;1698418;84;21593;-68
2021/03/25 05:13:39;;;;;;;7.55;4.22;;;;;;;-1.18;57.16;99742.92;1724138;83;21161;-68
2021/03/25 05:16:18;;;;;;;8.70;4.55;;;;;;;-1.11;56.80;99746.47;1726139;82;21211;-67
2021/03/25 05:19:32;;;;;;;10.40;5.25;;;;;;;-1.01;55.88;99746.93;1691946;85;21311;-68
2021/03/25 05:22:45;;;;;;;8.68;5.12;;;;;;;-0.86;56.12;99744.14;1678491;85;21653;-68
2021/03/25 05:25:36;;;;;;;9.65;5.20;;;;;;;-0.79;55.68;99750.34;1652783;85;21574;-68
2021/03/25 05:28:32;;;;;;;9.98;5.60;;;;;;;-0.66;55.46;99754.41;1767079;80;21295;-67
2021/03/25 05:31:01;;;;;;;11.05;5.78;;;;;;;-0.50;54.48;99761.56;1759475;80;22067;-67
2021/03/25 05:33:31;;;;;;;10.20;5.95;;;;;;;-0.36;54.58;99753.60;1748824;82;21300;-67
2021/03/25 05:36:09;;;;;;;13.22;5.53;;;;;;;-0.25;53.71;99758.38;1748977;80;21187;-67
2021/03/25 05:38:39;;;;;;;11.45;5.40;;;;;;;-0.08;53.91;99750.28;1748893;82;21162;-68
2021/03/25 05:41:15;;;;;;;10.32;5.75;;;;;;;0.09;53.45;99757.41;1748677;82;21142;-68
2021/03/25 05:44:14;;;;;;;8.98;5.30;;;;;;;0.21;52.78;99755.28;1748370;82;21174;-68
2021/03/25 05:47:02;;;;;;;11.18;5.55;;;;;;;0.32;52.39;99761.34;1749307;80;21621;-68
2021/03/25 05:50:04;;;;;;;10.68;5.83;;;;;;;0.42;52.25;99767.65;1748933;81;21621;-68
2021/03/25 05:53:08;;;;;;;11.57;6.00;;;;;;;0.59;51.71;99762.70;1713798;82;21193;-67
2021/03/25 05:56:32;;;;;;;9.50;5.25;;;;;;;0.77;51.61;99765.06;1748648;82;21227;-69
2021/03/25 05:59:05;;;;;;;10.98;5.10;;;;;;;0.94;51.50;99770.80;1748781;82;21312;-68
2021/03/25 06:02:03;;;;;;;12.13;5.53;;;;;;;1.09;51.52;99773.25;1748896;82;21683;-69
2021/03/25 06:04:34;;;;;;;12.07;6.45;;;;;;;1.30;51.08;99775.67;1748770;81;21171;-69
2021/03/25 06:07:16;;;;;;;11.68;6.70;;;;;;;1.61;50.44;99770.39;1748817;80;21225;-68
2021/03/25 06:10:06;;;;;;;13.60;6.50;;;;;;;1.80;48.79;99772.17;1748767;82;21169;-69
2021/03/25 06:12:47;;;;;;;10.48;5.60;;;;;;;1.93;48.97;99768.07;1748718;82;21636;-67
2021/03/25 06:15:41;;;;;;;11.80;5.90;;;;;;;2.08;48.26;99768.30;1772175;80;21169;-68
2021/03/25 06:18:59;;;;;;;10.85;6.20;;;;;;;2.26;47.72;99771.91;1713089;84;21236;-68
2021/03/25 06:22:03;;;;;;;11.28;6.25;;;;;;;2.42;47.08;99777.25;1779430;80;21255;-68
2021/03/25 06:24:46;;;;;;;12.73;6.50;;;;;;;2.49;46.46;99775.34;1657902;84;21227;-67
2021/03/25 06:28:04;;;;;;;13.45;5.92;;;;;;;2.57;46.19;99777.77;1712739;83;21620;-69
2021/03/25 06:30:36;;;;;;;12.30;6.92;;;;;;;2.72;45.89;99777.44;1712958;84;21173;-69
2021/03/25 06:33:12;;;;;;;12.98;7.10;;;;;;;2.93;45.73;99781.08;1706765;84;21235;-69
2021/03/25 06:35:54;;;;;;;16.65;7.40;;;;;;;3.15;45.82;99778.80;1675280;84;21416;-69
2021/03/25 06:38:39;;;;;;;13.83;7.00;;;;;;;3.45;44.63;99779.70;1684354;85;21236;-68
2021/03/25 06:41:21;;;;;;;12.95;6.78;;;;;;;3.63;44.24;99770.79;1642068;86;22222;-68
2021/03/25 06:43:56;;;;;;;12.47;6.95;;;;;;;3.64;43.98;99781.86;1686190;84;21569;-68
2021/03/25 06:46:37;;;;;;;15.28;7.35;;;;;;;3.65;43.81;99772.75;1689269;84;21198;-69
2021/03/25 06:49:31;;;;;;;13.03;6.67;;;;;;;3.78;43.84;99776.61;1712900;84;21161;-69
2021/03/25 06:52:30;;;;;;;12.75;6.55;;;;;;;3.92;42.67;99780.26;1712661;83;21256;-69
2021/03/25 06:55:18;;;;;;;14.40;6.85;;;;;;;3.97;43.08;99775.52;1712837;84;21189;-69
2021/03/25 06:58:05;;;;;;;11.70;5.62;;;;;;;4.15;42.44;99779.51;1682646;84;21169;-68
2021/03/25 07:00:36;;;;;;;;;;;;;;;4.31;42.18;99775.36;1704505;84;21169;-68
2021/03/25 07:03:05;;;;;;;12.45;5.67;;;;;;;4.57;40.76;99776.28;1684301;85;20183;-68
2021/03/25 07:05:34;;;;;;;12.23;5.70;;;;;;;4.69;40.06;99776.30;1689600;84;21304;-68
2021/03/25 07:08:17;;;;;;;14.85;5.95;;;;;;;4.75;39.96;99777.55;1712818;84;21335;-68
2021/03/25 07:10:55;;;;;;;10.35;5.28;;;;;;;4.95;41.04;99772.66;1712650;83;21238;-69
2021/03/25 07:13:48;;;;;;;11.53;5.53;;;;;;;5.28;38.92;99774.73;1712830;84;21185;-67
2021/03/25 07:16:15;;;;;;;9.98;4.53;;;;;;;5.38;38.52;99776.85;1710807;84;21210;-67
2021/03/25 07:19:14;;;;;;;9.98;3.72;;;;;;;5.36;37.17;99773.55;1710546;84;21347;-68
2021/03/25 07:21:46;;;;;;;11.90;4.97;;;;;;;5.18;36.95;99775.03;1641990;87;21195;-67
2021/03/25 07:24:32;;;;;;;7.20;3.62;;;;;;;5.01;36.83;99777.63;1657553;84;21169;-66
2021/03/25 07:27:22;;;;;;;8.85;3.98;;;;;;;4.84;36.32;99780.73;1684296;85;21338;-68
2021/03/25 07:30:03;;;;;;;11.22;3.92;;;;;;;4.76;36.45;99781.06;1642099;86;21210;-67
2021/03/25 07:32:39;;;;;;;6.65;3.52;;;;;;;4.82;35.70;99776.08;1677407;85;21181;-67
2021/03/25 07:35:33;;;;;;;9.77;4.30;;;;;;;5.00;36.20;99775.45;1686393;84;21197;-66
2021/03/25 07:38:04;;;;;;;10.08;3.80;;;;;;;5.03;35.91;99775.50;1688048;84;21752;-66
2021/03/25 07:40:37;;;;;;;6.62;2.85;;;;;;;5.04;37.33;99787.94;1705817;84;21201;-67
2021/03/25 07:43:23;;;;;;;8.65;3.70;;;;;;;4.95;34.34;99777.22;1712825;84;21173;-67
2021/03/25 07:46:11;;;;;;;8.05;3.60;;;;;;;4.95;34.67;99774.00;1711680;84;21226;-67
2021/03/25 07:48:40;;;;;;;9.88;3.77;;;;;;;5.17;36.27;99777.45;1708156;84;21193;-66
2021/03/25 07:51:14;;;;;;;8.90;3.75;;;;;;;5.34;35.47;99773.80;1712755;84;21326;-66
2021/03/25 07:53:44;;;;;;;7.05;3.02;;;;;;;5.41;34.54;99770.45;1712935;84;21189;-68
2021/03/25 07:56:18;;;;;;;7.50;3.45;;;;;;;5.32;34.25;99763.75;1659600;85;21203;-67
2021/03/25 07:58:50;;;;;;;9.30;3.83;;;;;;;5.29;34.12;99760.19;1681069;84;21142;-67
2021/03/25 08:01:21;;;;;;;9.48;4.58;;;;;;;5.28;35.34;99763.14;1642056;86;21222;-68
2021/03/25 08:03:54;;;;;;;9.70;3.98;;;;;;;5.21;35.05;99767.84;1699405;84;21166;-67
2021/03/25 08:06:35;;;;;;;6.62;3.30;;;;;;;5.29;35.77;99759.36;1713035;84;21199;-67
2021/03/25 08:09:10;;;;;;;7.03;3.25;;;;;;;5.40;34.56;99757.17;1712789;84;21182;-67
2021/03/25 08:12:01;;;;;;;9.35;3.05;;;;;;;5.37;35.03;99745.51;1710710;84;21256;-66
2021/03/25 08:14:31;;;;;;;5.67;2.80;;;;;;;5.53;34.66;99742.61;1664570;84;21197;-66
2021/03/25 08:17:29;;;;;;;6.00;2.75;;;;;;;5.68;33.16;99744.25;1642158;87;21206;-68
2021/03/25 08:20:23;;;;;;;6.40;2.33;;;;;;;5.77;33.39;99741.48;1702306;84;21205;-68
2021/03/25 08:23:08;;;;;;;8.68;2.98;;;;;;;5.94;33.38;99741.02;1712287;84;21190;-68
2021/03/25 08:25:44;;;;;;;10.13;2.30;;;;;;;6.01;32.18;99730.89;1715140;83;21165;-68
2021/03/25 08:28:34;;;;;;;5.08;1.90;;;;;;;6.06;30.79;99736.37;1715240;83;21676;-66
2021/03/25 08:31:22;;;;;;;4.58;2.17;;;;;;;6.07;31.83;99729.91;1689680;84;21647;-68
2021/03/25 08:34:07;;;;;;;4.78;1.80;;;;;;;6.11;31.43;99729.72;1686595;85;21181;-67
2021/03/25 08:37:18;;;;;;;5.45;2.45;;;;;;;6.14;30.54;99723.82;1686480;85;21177;-67
2021/03/25 08:40:06;;;;;;;3.45;1.67;;;;;;;6.19;30.51;99740.14;1772346;80;21194;-66
2021/03/25 08:42:44;;;;;;;3.33;1.65;;;;;;;6.19;31.29;99727.98;1757257;81;21328;-67
2021/03/25 08:45:32;;;;;;;4.37;2.17;;;;;;;6.33;30.15;99734.72;1757074;80;21237;-67
2021/03/25 08:48:13;;;;;;;8.95;2.20;;;;;;;6.31;29.83;99732.77;1756943;80;21614;-66
2021/03/25 08:50:50;;;;;;;4.85;1.67;;;;;;;6.46;30.92;99730.86;1748007;81;21211;-67
2021/03/25 08:53:39;;;;;;;4.30;1.65;;;;;;;6.55;29.58;99731.30;1747258;80;21173;-67
2021/03/25 08:56:41;;;;;;;5.15;1.80;;;;;;;6.64;29.73;99729.80;1708393;83;21624;-67
2021/03/25 08:59:45;;;;;;;3.95;1.50;;;;;;;6.77;29.09;99725.41;1732506;83;21314;-66
2021/03/25 09:02:41;;;;;;;6.70;1.65;;;;;;;6.92;27.86;99727.00;1816444;79;22409;-68
2021/03/25 09:05:28;;;;;;;5.35;1.80;;;;;;;6.88;28.38;99729.38;1758894;80;21233;-68
2021/03/25 09:07:58;;;;;;;3.72;1.70;;;;;;;7.07;29.39;99724.52;1778083;80;21112;-68
2021/03/25 09:10:42;;;;;;;3.17;1.70;;;;;;;7.26;28.14;99727.20;1701275;84;21207;-68
2021/03/25 09:13:17;;;;;;;3.20;1.50;;;;;;;7.27;27.66;99728.03;1720768;83;21594;-68
2021/03/25 09:15:45;;;;;;;5.67;1.35;;;;;;;7.30;26.83;99734.30;1720172;83;21303;-69
2021/03/25 09:18:23;;;;;;;6.90;2.67;;;;;;;7.10;27.26;99720.48;1720986;83;21161;-68
2021/03/25 09:20:57;;;;;;;3.47;1.57;;;;;;;7.08;28.22;99719.40;1720287;83;21189;-68
2021/03/25 09:23:36;;;;;;;3.50;1.50;;;;;;;7.09;28.12;99721.55;1721882;83;21707;-68
2021/03/25 09:26:15;;;;;;;3.27;1.37;;;;;;;6.79;26.67;99720.58;1723511;83;21619;-68
2021/03/25 09:29:00;;;;;;;3.45;1.50;;;;;;;6.73;27.44;99725.64;1716344;83;21134;-68
2021/03/25 09:31:30;;;;;;;3.30;1.10;;;;;;;6.62;27.47;99722.48;1721744;83;21160;-68
2021/03/25 09:33:59;;;;;;;6.72;1.40;;;;;;;6.77;29.08;99727.58;1723642;83;21188;-68
2021/03/25 09:36:35;;;;;;;2.98;1.17;;;;;;;6.81;27.46;99714.38;1706182;83;21152;-68
2021/03/25 09:39:18;;;;;;;2.58;1.57;;;;;;;6.70;27.96;99711.23;1694889;85;21156;-67
2021/03/25 09:41:47;;;;;;;2.20;1.20;;;;;;;6.73;28.38;99709.41;1694505;85;21215;-68
2021/03/25 09:44:37;;;;;;;3.22;1.27;;;;;;;6.86;28.97;99721.23;1694572;85;21176;-68
2021/03/25 09:47:25;;;;;;;3.10;1.25;;;;;;;7.00;28.17;99725.23;1696469;83;21128;-68
2021/03/25 09:50:05;;;;;;;;;;;;;;;7.17;27.86;99715.72;1714250;83;21706;-67
2021/03/25 09:52:43;;;;;;;3.12;1.70;;;;;;;7.20;27.67;99720.63;1749924;82;20280;-66
2021/03/25 09:55:15;;;;;;;5.70;1.60;;;;;;;7.22;28.36;99714.44;1709150;83;21188;-67
2021/03/25 09:57:45;;;;;;;2.87;1.50;;;;;;;7.25;27.25;99716.11;1693387;85;21542;-67
2021/03/25 10:00:43;;;;;;;3.37;1.60;;;;;;;7.39;27.27;99723.33;1693967;85;21180;-67
2021/03/25 10:03:14;;;;;;;3.08;1.40;;;;;;;7.45;26.60;99723.14;1741100;82;21146;-67
2021/03/25 10:05:43;;;;;;;3.37;1.60;;;;;;;7.56;25.95;99721.38;1743105;81;21176;-67
2021/03/25 10:08:16;;;;;;;5.05;1.50;;;;;;;7.53;25.26;99706.16;1693864;84;21171;-67
2021/03/25 10:11:00;;;;;;;5.03;1.70;;;;;;;7.39;25.98;99716.03;1741137;82;21145;-67
2021/03/25 10:13:46;;;;;;;3.85;1.62;;;;;;;7.42;26.02;99715.52;1718480;81;21157;-68
2021/03/25 10:16:39;;;;;;;3.50;1.40;;;;;;;7.31;25.48;99709.69;1740735;82;21617;-67
2021/03/25 10:19:10;;;;;;;3.90;1.20;;;;;;;7.31;26.54;99696.67;1740578;82;21153;-67
2021/03/25 10:21:59;;;;;;;3.15;1.72;;;;;;;7.47;25.03;99710.71;1740529;82;21307;-67
2021/03/25 10:28:27;;;;;;;2.98;1.30;;;;;;;7.55;25.41;99701.30;1819110;79;22819;-68
2021/03/25 10:30:57;;;;;;;5.60;1.80;;;;;;;7.50;26.16;99711.56;1768952;80;21137;-69
2021/03/25 10:33:24;;;;;;;2.50;1.05;;;;;;;7.54;26.08;99711.34;1758731;81;21156;-69
2021/03/25 10:43:18;;;;;;;2.65;1.52;;;;;;;7.80;26.82;99707.84;1758543;79;22682;-67
2021/03/25 10:45:59;;;;;;;3.02;1.07;;;;;;;7.80;25.49;99704.30;1702946;83;21612;-67
2021/03/25 10:48:37;;;;;;;4.22;1.67;;;;;;;7.70;25.78;99706.91;1649328;87;21618;-68
2021/03/25 10:51:14;;;;;;;4.75;1.50;;;;;;;7.63;24.73;99715.23;1674349;85;21210;-67
2021/03/25 10:53:52;;;;;;;2.50;1.30;;;;;;;7.46;24.85;99703.12;1650792;87;21603;-68
2021/03/25 10:56:38;;;;;;;3.25;1.00;;;;;;;7.40;25.65;99722.27;1684296;83;21217;-68
2021/03/25 10:59:19;;;;;;;2.85;1.47;;;;;;;7.21;25.38;99712.27;1651360;87;21564;-67
2021/03/25 11:01:54;;;;;;;2.45;1.40;;;;;;;7.07;25.94;99702.87;1656052;86;21188;-67
2021/03/25 11:04:29;;;;;;;2.77;1.20;;;;;;;7.09;27.12;99695.30;1662984;85;21723;-67
2021/03/25 11:07:19;;;;;;;3.08;1.40;;;;;;;7.23;26.41;99697.92;1621628;87;21176;-67
2021/03/25 11:09:58;;;;;;;3.65;1.60;;;;;;;7.30;26.06;99693.14;1668743;85;21670;-67
2021/03/25 11:12:31;;;;;;;;;;;;;;;7.29;25.83;99693.41;1686690;85;21186;-66
2021/03/25 11:15:32;;;;;;;2.92;1.40;;;;;;;7.21;26.53;99698.73;1677793;85;20228;-66
2021/03/25 11:18:22;;;;;;;6.87;1.75;;;;;;;7.15;26.70;99689.44;1654594;81;21505;-66
2021/03/25 11:20:50;;;;;;;2.83;1.60;;;;;;;7.28;27.01;99680.41;1654874;81;21216;-66
2021/03/25 11:23:21;;;;;;;3.83;1.75;;;;;;;7.42;27.16;99687.61;1655506;81;21153;-66
2021/03/25 11:26:01;;;;;;;6.17;1.70;;;;;;;7.56;27.09;99689.40;1653074;85;21342;-66
2021/03/25 11:28:33;;;;;;;4.12;1.72;;;;;;;7.60;26.30;99686.47;1651109;87;21658;-66
2021/03/25 11:31:42;;;;;;;4.15;1.35;;;;;;;7.63;26.25;99680.02;1630360;86;21220;-67
2021/03/25 11:34:25;;;;;;;3.55;1.80;;;;;;;7.73;26.28;99677.41;1706395;84;21612;-66
2021/03/25 11:36:52;;;;;;;5.10;1.85;;;;;;;7.78;27.41;99682.08;1676014;85;21338;-67
2021/03/25 11:39:29;;;;;;;4.60;1.95;;;;;;;7.82;27.10;99674.55;1676118;84;21212;-67
2021/03/25 11:42:01;;;;;;;4.67;1.50;;;;;;;7.81;26.96;99677.50;1676078;85;21216;-66
2021/03/25 11:44:47;;;;;;;5.37;1.70;;;;;;;7.84;26.53;99676.45;1678135;84;21329;-67
2021/03/25 11:47:37;;;;;;;6.00;2.12;;;;;;;7.79;26.76;99680.48;1685495;85;21211;-67
2021/03/25 11:50:21;;;;;;;5.70;2.40;;;;;;;7.68;26.20;99672.48;1685064;84;21199;-67
2021/03/25 11:52:52;;;;;;;5.17;2.00;;;;;;;7.61;27.29;99678.10;1684202;85;21328;-67
2021/03/25 11:55:32;;;;;;;3.85;2.02;;;;;;;7.65;26.99;99670.28;1684869;84;21194;-66
2021/03/25 11:58:28;;;;;;;4.60;2.00;;;;;;;7.65;27.58;99674.35;1684910;85;21632;-66
2021/03/25 12:01:07;;;;;;;4.15;2.30;;;;;;;7.75;27.07;99664.44;1661099;86;21166;-67
2021/03/25 12:03:50;;;;;;;4.95;2.27;;;;;;;7.80;26.87;99659.59;1647733;87;21750;-67
2021/03/25 12:06:25;;;;;;;4.95;2.12;;;;;;;7.88;27.61;99656.42;1622156;87;21216;-67
2021/03/25 12:09:20;;;;;;;4.60;2.10;;;;;;;8.03;25.85;99665.25;1636268;88;21233;-67
2021/03/25 12:11:50;;;;;;;5.33;1.98;;;;;;;8.07;26.37;99653.64;1635131;86;21182;-66
2021/03/25 12:14:21;;;;;;;3.65;1.80;;;;;;;8.21;26.42;99651.32;1629950;88;21218;-67
2021/03/25 12:16:56;;;;;;;5.55;2.15;;;;;;;8.32;26.30;99653.90;1674150;86;21196;-67
2021/03/25 12:19:26;;;;;;;4.40;1.98;;;;;;;8.45;26.08;99648.02;1677582;84;21180;-67
2021/03/25 12:21:56;;;;;;;4.65;2.20;;;;;;;8.42;25.39;99655.87;1623137;87;21210;-68
2021/03/25 12:24:25;;;;;;;7.25;2.05;;;;;;;8.39;24.78;99642.83;1643234;87;21214;-68
2021/03/25 12:26:52;;;;;;;3.60;1.87;;;;;;;8.33;25.23;99652.80;1629832;87;21360;-67
2021/03/25 12:29:21;;;;;;;3.27;1.70;;;;;;;8.31;25.59;99650.08;1620808;88;21222;-67
2021/03/25 12:31:48;;;;;;;4.60;1.98;;;;;;;8.35;25.42;99647.95;1629751;87;21219;-67
2021/03/25 12:34:17;;;;;;;6.08;2.00;;;;;;;8.45;25.13;99641.24;1643408;87;21654;-68
2021/03/25 12:36:45;;;;;;;3.50;1.85;;;;;;;8.48;25.75;99648.03;1647268;87;21230;-68
2021/03/25 12:39:15;;;;;;;4.15;1.72;;;;;;;8.47;24.55;99648.56;1643523;87;21187;-67
2021/03/25 12:41:46;;;;;;;4.95;1.52;;;;;;;8.39;24.88;99651.78;1643695;87;21321;-67
2021/03/25 12:44:14;;;;;;;4.75;1.85;;;;;;;8.32;25.00;99645.77;1647184;87;21250;-67
2021/03/25 12:46:43;;;;;;;3.35;1.55;;;;;;;8.31;24.80;99646.01;1642806;87;21219;-67
2021/03/25 12:49:11;;;;;;;5.20;2.72;;;;;;;8.33;24.54;99639.77;1647367;87;21202;-67
2021/03/25 12:51:39;;;;;;;5.20;2.10;;;;;;;8.30;24.71;99643.83;1647022;87;21202;-68